Time;durP1;ratioP1;P1;durP2;ratioP2;P2;SDS_P1;SDS_P2;PMS_P1;PMS_P2;Temp;Humidity;BMP_temperature;BMP_pressure;BME280_temperature;BME280_humidity;BME280_pressure;Samples;Min_cycle;Max_cycle;Signal;HPM_P1;HPM_P2
2023/08/04 00:00:31;;;;;;;7.95;2.70;;;16.40;99.90;;;;;;5013163;28;20033;-84
2023/08/04 00:02:57;;;;;;;5.90;3.08;;;16.40;99.90;;;;;;5028316;28;20037;-84
2023/08/04 00:05:23;;;;;;;10.70;2.88;;;16.40;99.90;;;;;;5046768;28;20072;-84
2023/08/04 00:07:49;;;;;;;6.85;3.35;;;16.40;99.90;;;;;;5033319;28;20130;-84
2023/08/04 00:10:14;;;;;;;7.20;2.70;;;16.40;99.90;;;;;;5015118;28;20128;-84
2023/08/04 00:12:40;;;;;;;7.47;3.22;;;16.40;99.90;;;;;;5029652;28;20496;-84
2023/08/04 00:15:07;;;;;;;7.93;3.00;;;16.40;99.90;;;;;;5050197;28;20496;-84
2023/08/04 00:17:38;;;;;;;7.20;3.00;;;16.40;99.90;;;;;;5029526;28;20041;-84
2023/08/04 00:20:05;;;;;;;8.77;3.53;;;16.30;99.90;;;;;;5046305;28;20056;-83
2023/08/04 00:22:30;;;;;;;6.30;3.25;;;16.30;99.90;;;;;;5027895;28;20092;-84
2023/08/04 00:24:56;;;;;;;7.90;2.80;;;16.30;99.90;;;;;;5030383;28;20032;-83
2023/08/04 00:27:22;;;;;;;6.63;3.28;;;16.30;99.90;;;;;;5031254;28;20036;-84
2023/08/04 00:29:47;;;;;;;8.75;3.33;;;16.30;99.90;;;;;;5030611;28;20525;-84
2023/08/04 00:32:13;;;;;;;6.53;2.88;;;16.30;99.90;;;;;;5032882;28;20072;-86
2023/08/04 00:34:39;;;;;;;7.95;3.38;;;16.30;99.90;;;;;;5049799;28;20407;-84
2023/08/04 00:37:05;;;;;;;6.15;2.92;;;16.30;99.90;;;;;;5019908;28;20046;-84
2023/08/04 00:39:30;;;;;;;4.53;3.03;;;16.30;99.90;;;;;;5020857;28;20041;-85
2023/08/04 00:41:56;;;;;;;4.97;2.80;;;16.30;99.90;;;;;;5002968;28;20083;-84
2023/08/04 00:44:22;;;;;;;9.75;3.65;;;16.30;99.90;;;;;;5039972;28;20403;-84
2023/08/04 00:46:48;;;;;;;6.82;2.90;;;16.30;99.90;;;;;;5041149;28;20114;-83
2023/08/04 00:49:14;;;;;;;6.63;3.30;;;16.30;99.90;;;;;;5047092;28;20060;-83
2023/08/04 00:51:40;;;;;;;6.68;3.17;;;16.30;99.90;;;;;;5034180;28;20052;-84
2023/08/04 00:54:07;;;;;;;7.75;2.75;;;16.30;99.90;;;;;;5044940;28;20049;-85
2023/08/04 00:56:34;;;;;;;6.90;3.15;;;16.30;99.90;;;;;;5047288;28;20044;-84
2023/08/04 00:59:00;;;;;;;7.20;3.22;;;16.30;99.90;;;;;;5050351;28;20060;-83
2023/08/04 01:01:26;;;;;;;6.75;3.13;;;16.30;99.90;;;;;;5058297;28;20403;-83
2023/08/04 01:03:55;;;;;;;8.32;3.28;;;16.30;99.90;;;;;;5055452;28;20037;-84
2023/08/04 01:06:42;;;;;;;6.85;2.92;;;16.20;99.90;;;;;;5061188;28;20040;-84
2023/08/04 01:09:43;;;;;;;5.18;2.78;;;16.20;99.90;;;;;;5034468;28;20505;-84
2023/08/04 01:12:34;;;;;;;5.97;3.03;;;16.20;99.90;;;;;;5035345;28;20040;-85
2023/08/04 01:15:03;;;;;;;6.97;3.38;;;16.20;99.90;;;;;;5061227;28;20052;-85
2023/08/04 01:17:31;;;;;;;6.25;2.83;;;16.20;99.90;;;;;;5044474;28;20038;-83
2023/08/04 01:19:58;;;;;;;6.43;3.15;;;16.20;99.90;;;;;;5050986;28;20443;-84
2023/08/04 01:22:25;;;;;;;8.48;3.13;;;16.20;99.90;;;;;;5032130;28;20056;-84
2023/08/04 01:24:52;;;;;;;6.45;3.10;;;16.20;99.90;;;;;;5042703;28;20044;-85
2023/08/04 01:27:23;;;;;;;7.88;3.20;;;16.20;99.90;;;;;;5035768;28;20048;-84
2023/08/04 01:29:50;;;;;;;7.85;3.25;;;16.20;99.90;;;;;;5036945;28;20076;-84
2023/08/04 01:32:17;;;;;;;7.97;3.13;;;16.10;99.90;;;;;;5048381;28;20045;-84
2023/08/04 01:34:44;;;;;;;5.63;3.05;;;16.10;99.90;;;;;;5016552;28;20045;-84
2023/08/04 01:37:10;;;;;;;5.57;3.35;;;16.10;99.90;;;;;;4999895;28;20080;-84
2023/08/04 01:39:37;;;;;;;6.72;2.90;;;16.10;99.90;;;;;;5029084;28;20087;-84
2023/08/04 01:42:04;;;;;;;8.38;3.35;;;16.10;99.90;;;;;;4999074;28;20037;-84
2023/08/04 01:44:29;;;;;;;10.25;2.88;;;16.10;99.90;;;;;;5048028;28;20040;-84
2023/08/04 01:46:55;;;;;;;4.97;3.22;;;16.10;99.90;;;;;;5022690;28;20447;-84
2023/08/04 01:49:21;;;;;;;6.57;3.05;;;16.10;99.90;;;;;;5031004;28;20051;-83
2023/08/04 01:51:46;;;;;;;8.90;3.03;;;16.00;99.90;;;;;;5045692;28;20037;-83
2023/08/04 01:54:12;;;;;;;8.40;3.28;;;16.10;99.90;;;;;;5046339;28;20041;-83
2023/08/04 01:56:38;;;;;;;4.05;3.00;;;16.00;99.90;;;;;;5046757;28;20040;-83
2023/08/04 01:59:03;;;;;;;7.35;2.92;;;16.10;99.90;;;;;;5016856;28;20033;-83
2023/08/04 02:01:29;;;;;;;5.50;2.60;;;16.10;99.90;;;;;;5013584;28;20485;-84
2023/08/04 02:03:55;;;;;;;4.90;2.60;;;16.10;99.90;;;;;;5031427;28;20919;-84
2023/08/04 02:06:20;;;;;;;5.60;2.72;;;16.00;99.90;;;;;;5029331;28;20145;-83
2023/08/04 02:08:46;;;;;;;5.20;2.55;;;16.10;99.90;;;;;;5048673;28;20382;-83
2023/08/04 02:11:12;;;;;;;7.82;2.80;;;16.00;99.90;;;;;;5033450;28;20041;-84
2023/08/04 02:13:38;;;;;;;5.03;2.17;;;16.00;99.90;;;;;;5046882;28;20550;-84
2023/08/04 02:16:04;;;;;;;5.30;2.47;;;16.00;99.90;;;;;;5016812;28;20063;-84
2023/08/04 02:18:29;;;;;;;4.65;2.08;;;16.00;99.90;;;;;;5050761;28;20033;-84
2023/08/04 02:20:55;;;;;;;5.88;2.30;;;16.00;99.90;;;;;;5032517;28;20059;-84
2023/08/04 02:23:21;;;;;;;7.53;2.40;;;15.90;99.90;;;;;;5017605;28;20041;-84
2023/08/04 02:25:46;;;;;;;5.30;2.17;;;15.90;99.90;;;;;;5027489;28;20041;-83
2023/08/04 02:28:12;;;;;;;4.03;2.10;;;15.80;99.90;;;;;;5030193;28;21764;-85
2023/08/04 02:30:38;;;;;;;4.30;2.00;;;15.80;99.90;;;;;;5018641;28;20040;-84
2023/08/04 02:33:03;;;;;;;4.80;2.00;;;15.70;99.90;;;;;;5048074;28;20542;-83
2023/08/04 02:35:29;;;;;;;4.35;2.08;;;15.70;99.90;;;;;;5045158;28;20040;-84
2023/08/04 02:37:55;;;;;;;4.47;1.90;;;15.70;99.90;;;;;;5013334;28;20045;-84
2023/08/04 02:40:21;;;;;;;5.72;1.80;;;15.70;99.90;;;;;;5045918;28;20040;-84
2023/08/04 02:42:47;;;;;;;3.25;1.65;;;15.60;99.90;;;;;;5048897;28;20071;-85
2023/08/04 02:45:12;;;;;;;2.50;1.77;;;15.60;99.90;;;;;;5015464;28;20041;-84
2023/08/04 02:47:38;;;;;;;4.25;1.80;;;15.60;99.90;;;;;;5027738;28;20045;-84
2023/08/04 02:50:05;;;;;;;4.45;2.00;;;15.60;99.90;;;;;;5047532;28;20546;-84
2023/08/04 02:52:30;;;;;;;5.20;1.67;;;15.60;99.90;;;;;;5027869;28;20048;-83
2023/08/04 02:54:56;;;;;;;4.20;1.65;;;15.60;99.90;;;;;;5034414;28;20086;-84
2023/08/04 02:57:22;;;;;;;4.90;1.70;;;15.60;99.90;;;;;;5047894;28;20047;-83
2023/08/04 02:59:47;;;;;;;3.83;1.50;;;15.60;99.90;;;;;;5046410;28;20037;-84
2023/08/04 03:02:13;;;;;;;2.83;1.60;;;15.60;99.90;;;;;;5014433;28;20033;-84
2023/08/04 03:04:39;;;;;;;4.65;1.65;;;15.60;99.90;;;;;;5011433;28;20044;-84
2023/08/04 03:07:05;;;;;;;5.43;1.75;;;15.60;99.90;;;;;;5031230;28;20033;-84
2023/08/04 03:09:31;;;;;;;4.18;1.70;;;15.60;99.90;;;;;;5019788;28;20037;-85
2023/08/04 03:11:57;;;;;;;4.85;1.60;;;15.60;99.90;;;;;;5045846;28;20067;-83
2023/08/04 03:14:22;;;;;;;4.80;2.13;;;15.60;99.90;;;;;;5030876;28;20041;-84
2023/08/04 03:16:50;;;;;;;4.45;1.73;;;15.60;99.90;;;;;;4998680;28;20045;-84
2023/08/04 03:19:17;;;;;;;2.60;1.70;;;15.60;99.90;;;;;;5045269;28;20072;-85
2023/08/04 03:21:43;;;;;;;4.70;1.80;;;15.60;99.90;;;;;;5048126;28;20065;-84
2023/08/04 03:24:09;;;;;;;3.75;1.58;;;15.50;99.90;;;;;;5043213;28;20044;-84
2023/08/04 03:26:35;;;;;;;4.60;1.95;;;15.50;99.90;;;;;;5042774;28;20033;-85
2023/08/04 03:29:00;;;;;;;4.90;1.73;;;15.50;99.90;;;;;;5047929;28;20535;-85
2023/08/04 03:31:26;;;;;;;4.20;1.98;;;15.50;99.90;;;;;;5028458;28;20044;-85
2023/08/04 03:33:52;;;;;;;3.78;1.80;;;15.50;99.90;;;;;;5028768;28;20172;-84
2023/08/04 03:36:18;;;;;;;3.70;1.70;;;15.50;99.90;;;;;;5048169;28;20119;-85
2023/08/04 03:38:44;;;;;;;3.80;1.52;;;15.50;99.90;;;;;;5011626;28;20493;-85
2023/08/04 03:41:09;;;;;;;4.80;1.80;;;15.50;99.90;;;;;;5030523;28;20044;-85
2023/08/04 03:43:35;;;;;;;2.63;1.88;;;15.50;99.90;;;;;;5047665;28;20044;-85
2023/08/04 03:46:01;;;;;;;5.72;1.98;;;15.50;99.90;;;;;;5017181;28;20504;-84
2023/08/04 03:48:26;;;;;;;4.07;2.13;;;15.50;99.90;;;;;;5046939;28;20047;-84
2023/08/04 03:50:52;;;;;;;4.38;1.67;;;15.50;99.90;;;;;;5013900;28;20036;-84
2023/08/04 03:53:18;;;;;;;3.38;1.80;;;15.40;99.90;;;;;;5044076;28;20049;-85
2023/08/04 03:55:43;;;;;;;4.07;1.90;;;15.40;99.90;;;;;;5018742;28;20680;-84
2023/08/04 03:58:09;;;;;;;4.07;2.42;;;15.40;99.90;;;;;;5011517;28;20064;-84
2023/08/04 04:00:35;;;;;;;3.90;1.70;;;15.40;99.90;;;;;;5016117;28;20033;-84
2023/08/04 04:03:00;;;;;;;5.38;1.83;;;15.40;99.90;;;;;;5046730;28;20041;-84
2023/08/04 04:05:26;;;;;;;5.03;1.95;;;15.40;99.90;;;;;;5018591;28;20132;-84
2023/08/04 04:07:52;;;;;;;4.57;1.98;;;15.40;99.90;;;;;;5023823;28;20568;-84
2023/08/04 04:10:17;;;;;;;6.85;2.00;;;15.40;99.90;;;;;;5035730;28;20040;-83
2023/08/04 04:12:43;;;;;;;3.95;2.25;;;15.40;99.90;;;;;;5042633;28;20436;-84
2023/08/04 04:15:09;;;;;;;4.68;2.20;;;15.40;99.90;;;;;;5030305;28;20037;-85
2023/08/04 04:17:35;;;;;;;3.22;2.28;;;15.40;99.90;;;;;;4997124;28;20459;-84
2023/08/04 04:20:01;;;;;;;4.97;2.88;;;15.40;99.90;;;;;;5026443;28;20389;-83
2023/08/04 04:22:27;;;;;;;4.20;2.20;;;15.40;99.90;;;;;;5049926;28;20037;-83
2023/08/04 04:24:53;;;;;;;3.22;2.20;;;15.40;99.90;;;;;;5015787;28;20029;-84
2023/08/04 04:27:18;;;;;;;3.80;2.00;;;15.40;99.90;;;;;;5041880;28;20072;-85
2023/08/04 04:29:44;;;;;;;2.03;1.60;;;15.50;99.90;;;;;;5047441;28;20868;-84
2023/08/04 04:32:10;;;;;;;2.42;1.90;;;15.40;99.90;;;;;;5014471;28;20091;-84
2023/08/04 04:34:36;;;;;;;5.30;1.63;;;15.50;99.90;;;;;;5049105;28;20037;-84
2023/08/04 04:37:01;;;;;;;4.47;1.50;;;15.50;99.90;;;;;;5028965;28;20045;-84
2023/08/04 04:39:27;;;;;;;4.18;1.48;;;15.50;99.90;;;;;;5045918;28;20476;-83
2023/08/04 04:41:53;;;;;;;4.03;1.50;;;15.50;99.90;;;;;;5033258;28;20055;-84
2023/08/04 04:44:18;;;;;;;2.85;1.38;;;15.50;99.90;;;;;;5049215;28;20037;-84
2023/08/04 04:46:44;;;;;;;2.35;1.30;;;15.50;99.90;;;;;;5030552;28;20459;-84
2023/08/04 04:49:10;;;;;;;1.95;1.50;;;15.50;99.90;;;;;;5046680;28;20041;-84
2023/08/04 04:51:35;;;;;;;2.35;1.33;;;15.60;99.90;;;;;;5031753;28;20074;-85
2023/08/04 04:54:01;;;;;;;2.38;1.60;;;15.60;99.90;;;;;;5045863;28;20041;-83
2023/08/04 04:56:27;;;;;;;2.10;1.77;;;15.60;99.90;;;;;;5047061;28;20488;-84
2023/08/04 04:58:52;;;;;;;4.05;1.52;;;15.60;99.90;;;;;;5041866;28;20122;-84
2023/08/04 05:01:18;;;;;;;4.50;1.90;;;15.60;99.90;;;;;;5025144;28;20091;-84
2023/08/04 05:03:44;;;;;;;4.28;1.70;;;15.60;99.90;;;;;;5046527;28;20396;-85
2023/08/04 05:06:09;;;;;;;5.68;2.13;;;15.70;99.90;;;;;;5043785;28;20480;-82
2023/08/04 05:08:35;;;;;;;4.20;2.05;;;15.60;99.90;;;;;;5046336;28;20072;-84
2023/08/04 05:11:01;;;;;;;5.10;2.47;;;15.60;99.90;;;;;;5031237;28;20471;-84
2023/08/04 05:13:26;;;;;;;3.90;1.80;;;15.60;99.90;;;;;;5045384;28;20037;-84
2023/08/04 05:15:52;;;;;;;4.22;2.10;;;15.60;99.90;;;;;;5047443;28;20037;-84
2023/08/04 05:18:19;;;;;;;5.53;2.42;;;15.60;99.90;;;;;;5041896;28;20342;-83
2023/08/04 05:20:48;;;;;;;3.88;2.28;;;15.60;99.90;;;;;;5048009;28;20052;-84
2023/08/04 05:23:14;;;;;;;5.38;2.10;;;15.60;99.90;;;;;;5064471;28;20104;-84
2023/08/04 05:25:40;;;;;;;5.75;2.50;;;15.60;99.90;;;;;;5047287;28;20044;-84
2023/08/04 05:28:19;;;;;;;4.75;2.10;;;15.70;99.90;;;;;;5029066;28;20037;-83
2023/08/04 05:30:45;;;;;;;4.30;2.38;;;15.70;99.90;;;;;;5029204;28;20072;-84
2023/08/04 05:33:10;;;;;;;5.20;2.85;;;15.70;99.90;;;;;;5028286;28;20118;-83
2023/08/04 05:35:38;;;;;;;4.85;2.20;;;15.70;99.90;;;;;;5029968;28;20049;-83
2023/08/04 05:38:04;;;;;;;3.15;2.08;;;15.70;99.90;;;;;;5045956;28;20053;-84
2023/08/04 05:40:32;;;;;;;3.00;1.95;;;15.80;99.90;;;;;;5016481;28;20087;-84
2023/08/04 05:42:59;;;;;;;2.80;2.30;;;15.80;99.90;;;;;;5045016;28;20484;-84
2023/08/04 05:45:24;;;;;;;4.38;2.28;;;15.80;99.90;;;;;;5050299;28;20545;-84
2023/08/04 05:47:50;;;;;;;5.80;2.30;;;15.80;99.90;;;;;;5033891;28;20152;-84
2023/08/04 05:50:16;;;;;;;4.32;2.72;;;15.80;99.90;;;;;;5050253;28;20488;-84
2023/08/04 05:52:41;;;;;;;7.07;2.60;;;15.80;99.90;;;;;;5017802;28;20080;-84
2023/08/04 05:55:07;;;;;;;4.13;2.30;;;15.80;99.90;;;;;;5034913;28;20041;-85
2023/08/04 05:57:33;;;;;;;5.43;2.25;;;15.80;99.90;;;;;;5031247;28;20041;-85
2023/08/04 05:59:58;;;;;;;4.47;2.20;;;15.80;99.90;;;;;;5049133;28;20036;-85
2023/08/04 06:02:24;;;;;;;4.18;2.50;;;15.80;99.90;;;;;;5031129;28;20127;-84
2023/08/04 06:04:51;;;;;;;4.47;2.50;;;15.90;99.90;;;;;;5015620;28;20033;-84
2023/08/04 06:07:16;;;;;;;4.22;2.08;;;15.90;99.90;;;;;;5035698;28;20040;-84
2023/08/04 06:09:42;;;;;;;3.00;2.42;;;15.90;99.90;;;;;;5032700;28;20044;-85
2023/08/04 06:12:08;;;;;;;3.85;2.25;;;15.90;99.90;;;;;;5032514;28;20168;-82
2023/08/04 06:14:34;;;;;;;3.80;2.40;;;16.00;99.90;;;;;;5047209;28;20079;-83
2023/08/04 06:16:59;;;;;;;4.40;2.20;;;16.00;99.90;;;;;;5044278;28;20091;-83
2023/08/04 06:19:25;;;;;;;5.45;2.50;;;16.00;99.90;;;;;;5009898;28;20064;-84
2023/08/04 06:21:51;;;;;;;4.85;2.47;;;16.10;99.90;;;;;;5034303;28;20071;-84
2023/08/04 06:24:27;;;;;;;4.13;2.50;;;16.10;99.90;;;;;;5010849;28;20065;-84
2023/08/04 06:26:53;;;;;;;5.40;2.50;;;16.10;99.90;;;;;;5051909;28;20038;-84
2023/08/04 06:29:18;;;;;;;3.95;2.45;;;16.20;99.90;;;;;;5034181;28;20071;-84
2023/08/04 06:31:44;;;;;;;4.32;2.33;;;16.20;99.90;;;;;;5026516;28;20041;-83
2023/08/04 06:34:10;;;;;;;4.50;2.50;;;16.20;99.90;;;;;;5033950;28;20392;-84
2023/08/04 06:36:36;;;;;;;6.22;2.58;;;16.20;99.90;;;;;;5050263;28;20074;-84
2023/08/04 06:39:01;;;;;;;4.47;2.28;;;16.30;99.90;;;;;;5013946;28;20049;-84
2023/08/04 06:41:27;;;;;;;3.65;2.20;;;16.30;99.90;;;;;;5017875;28;20106;-85
2023/08/04 06:43:53;;;;;;;4.55;2.58;;;16.30;99.90;;;;;;5005786;28;21850;-83
2023/08/04 06:46:18;;;;;;;4.70;2.50;;;16.40;99.90;;;;;;5032762;28;20044;-83
2023/08/04 06:48:44;;;;;;;8.20;2.88;;;16.40;99.90;;;;;;5028264;28;20049;-84
2023/08/04 06:51:10;;;;;;;3.80;2.13;;;16.50;99.90;;;;;;5014814;28;20064;-84
2023/08/04 06:53:36;;;;;;;5.05;2.45;;;16.50;99.90;;;;;;5063893;28;20041;-85
2023/08/04 06:56:02;;;;;;;5.07;2.70;;;16.60;99.90;;;;;;5003023;28;20052;-83
2023/08/04 06:58:28;;;;;;;4.57;2.30;;;16.60;99.90;;;;;;5031235;28;20075;-83
2023/08/04 07:00:54;;;;;;;5.00;2.28;;;16.70;99.90;;;;;;5047653;28;20454;-85
2023/08/04 07:03:19;;;;;;;4.35;2.50;;;16.70;99.90;;;;;;5030373;28;20033;-86
2023/08/04 07:05:45;;;;;;;4.95;2.40;;;16.70;99.90;;;;;;5010976;28;20497;-85
2023/08/04 07:08:11;;;;;;;3.17;2.50;;;16.70;99.90;;;;;;5010706;28;20045;-84
2023/08/04 07:10:36;;;;;;;3.85;2.33;;;16.80;99.90;;;;;;5030164;28;20041;-84
2023/08/04 07:13:02;;;;;;;3.40;2.50;;;16.80;99.90;;;;;;5037504;28;20492;-83
2023/08/04 07:15:28;;;;;;;5.53;2.75;;;16.80;99.90;;;;;;5049687;28;20047;-86
2023/08/04 07:17:53;;;;;;;3.80;2.67;;;16.90;99.90;;;;;;5021624;28;20091;-85
2023/08/04 07:20:21;;;;;;;4.63;2.50;;;16.90;99.90;;;;;;5034773;28;20547;-84
2023/08/04 07:22:47;;;;;;;7.05;2.70;;;17.00;99.90;;;;;;5050206;28;20033;-84
2023/08/04 07:25:13;;;;;;;5.22;2.70;;;17.00;99.90;;;;;;5021303;28;20503;-82
2023/08/04 07:27:39;;;;;;;6.68;2.78;;;17.00;99.90;;;;;;5034759;28;20040;-84
2023/08/04 07:30:05;;;;;;;5.82;2.63;;;17.10;99.90;;;;;;5050194;28;20047;-84
2023/08/04 07:32:31;;;;;;;2.90;2.60;;;17.20;99.90;;;;;;5048567;28;20128;-83
2023/08/04 07:34:57;;;;;;;3.20;2.20;;;17.20;99.90;;;;;;5048784;28;20115;-84
2023/08/04 07:37:22;;;;;;;3.90;2.47;;;17.30;99.90;;;;;;5032760;28;20060;-83
2023/08/04 07:39:48;;;;;;;3.95;2.10;;;17.40;99.90;;;;;;5049907;28;20055;-83
2023/08/04 07:42:14;;;;;;;5.57;2.10;;;17.50;99.90;;;;;;5033080;28;20033;-84
2023/08/04 07:44:39;;;;;;;3.72;2.28;;;17.50;99.90;;;;;;5032281;28;20041;-84
2023/08/04 07:47:05;;;;;;;2.47;2.20;;;17.60;99.90;;;;;;5031064;28;20052;-83
2023/08/04 07:49:31;;;;;;;5.38;2.13;;;17.70;99.90;;;;;;5017386;28;20044;-84
2023/08/04 07:51:56;;;;;;;5.97;2.00;;;17.80;99.90;;;;;;5018608;28;20047;-83
2023/08/04 07:54:22;;;;;;;6.55;2.53;;;17.80;99.90;;;;;;5028161;28;20690;-82
2023/08/04 07:56:48;;;;;;;5.00;2.45;;;17.80;99.90;;;;;;5031702;28;20048;-84
2023/08/04 07:59:13;;;;;;;2.63;1.83;;;17.80;99.90;;;;;;5013463;28;20045;-84
2023/08/04 08:01:39;;;;;;;5.28;2.03;;;17.90;99.90;;;;;;5011431;28;20912;-82
2023/08/04 08:04:05;;;;;;;3.10;1.95;;;17.90;99.90;;;;;;5029327;28;20071;-83
2023/08/04 08:06:31;;;;;;;3.40;2.28;;;17.80;99.90;;;;;;5018486;28;20535;-83
2023/08/04 08:08:57;;;;;;;4.55;2.22;;;17.80;99.90;;;;;;5051209;28;20106;-82
2023/08/04 08:11:23;;;;;;;5.45;2.20;;;17.80;99.90;;;;;;5035152;28;20083;-83
2023/08/04 08:13:48;;;;;;;5.30;2.55;;;17.80;99.90;;;;;;5018826;28;20045;-83
2023/08/04 08:16:17;;;;;;;5.22;2.58;;;17.90;99.90;;;;;;5050843;28;20533;-83
2023/08/04 08:18:44;;;;;;;5.78;2.10;;;18.00;99.90;;;;;;5029488;28;20095;-82
2023/08/04 08:21:10;;;;;;;3.35;2.15;;;18.00;99.90;;;;;;5019545;28;20049;-83
2023/08/04 08:23:36;;;;;;;3.53;2.05;;;18.10;99.90;;;;;;5014646;28;20083;-83
2023/08/04 08:26:03;;;;;;;4.53;2.08;;;18.10;99.90;;;;;;5049657;28;20068;-83
2023/08/04 08:28:29;;;;;;;4.20;2.15;;;18.20;99.90;;;;;;5031631;28;20037;-82
2023/08/04 08:30:55;;;;;;;4.70;2.10;;;18.20;99.90;;;;;;5030910;28;20754;-84
2023/08/04 08:33:21;;;;;;;2.53;1.85;;;18.30;99.90;;;;;;5048047;28;20041;-83
2023/08/04 08:35:47;;;;;;;4.30;2.25;;;18.30;99.90;;;;;;5030685;28;20126;-83
2023/08/04 08:38:13;;;;;;;5.55;2.38;;;18.30;99.90;;;;;;5049212;28;20586;-82
2023/08/04 08:40:38;;;;;;;2.63;2.05;;;18.30;99.90;;;;;;5030473;28;20072;-82
2023/08/04 08:43:04;;;;;;;3.15;1.90;;;18.40;99.90;;;;;;5012198;28;20063;-83
2023/08/04 08:45:32;;;;;;;3.20;2.08;;;18.40;99.90;;;;;;5031804;28;20064;-82
2023/08/04 08:47:57;;;;;;;2.53;2.00;;;18.50;99.90;;;;;;5045700;28;20045;-82
2023/08/04 08:50:25;;;;;;;5.45;2.00;;;18.50;99.90;;;;;;5044957;28;20044;-83
2023/08/04 08:53:00;;;;;;;2.83;1.98;;;18.50;99.90;;;;;;5010895;28;20048;-83
2023/08/04 08:55:29;;;;;;;2.10;1.90;;;18.60;99.90;;;;;;5045655;28;20044;-83
2023/08/04 08:57:56;;;;;;;5.57;2.08;;;18.70;99.90;;;;;;5012516;28;20867;-83
2023/08/04 09:00:22;;;;;;;1.95;1.70;;;18.70;99.90;;;;;;5047820;28;20045;-83
2023/08/04 09:02:48;;;;;;;4.65;2.10;;;18.80;99.90;;;;;;5019510;28;20124;-84
2023/08/04 09:05:16;;;;;;;3.17;1.77;;;18.70;99.90;;;;;;5045349;28;20029;-82
2023/08/04 09:07:42;;;;;;;3.67;2.00;;;18.70;99.90;;;;;;5049074;28;20057;-83
2023/08/04 09:10:08;;;;;;;4.35;2.00;;;18.80;99.90;;;;;;5001932;28;20103;-84
2023/08/04 09:12:35;;;;;;;4.30;2.08;;;18.90;99.90;;;;;;5047312;28;20048;-83
2023/08/04 09:15:03;;;;;;;2.65;1.92;;;19.10;99.90;;;;;;5039046;28;20053;-85
2023/08/04 09:17:37;;;;;;;5.53;1.92;;;19.10;99.90;;;;;;5063846;28;20509;-83
2023/08/04 09:20:05;;;;;;;2.75;1.83;;;19.00;99.90;;;;;;5036865;28;20043;-83
2023/08/04 09:22:35;;;;;;;2.60;1.77;;;18.80;99.90;;;;;;5031409;28;20178;-83
2023/08/04 09:25:05;;;;;;;2.95;1.80;;;18.60;99.90;;;;;;5049486;28;20375;-83
2023/08/04 09:27:35;;;;;;;3.80;1.90;;;18.40;99.90;;;;;;5055723;28;20614;-83
2023/08/04 09:30:05;;;;;;;3.67;2.10;;;18.30;99.90;;;;;;5032203;28;20055;-81
2023/08/04 09:32:33;;;;;;;2.80;2.13;;;18.40;99.90;;;;;;5053523;28;20037;-84
2023/08/04 09:35:04;;;;;;;4.30;2.08;;;18.70;99.90;;;;;;5048133;28;20045;-83
2023/08/04 09:37:34;;;;;;;2.70;2.07;;;18.90;99.90;;;;;;5055731;28;20063;-82
2023/08/04 09:40:11;;;;;;;3.72;1.60;;;19.00;99.90;;;;;;5030918;28;20636;-86
2023/08/04 09:42:37;;;;;;;3.75;2.17;;;19.20;99.90;;;;;;5022116;28;20098;-83
2023/08/04 09:45:03;;;;;;;4.18;1.75;;;19.30;99.90;;;;;;5052989;28;20029;-86
2023/08/04 09:47:28;;;;;;;3.33;1.70;;;19.30;99.90;;;;;;5036023;28;20040;-83
2023/08/04 09:49:55;;;;;;;2.67;1.88;;;19.30;99.90;;;;;;5052324;28;20037;-82
2023/08/04 09:52:24;;;;;;;2.42;1.80;;;19.20;99.90;;;;;;5037011;28;20494;-83
2023/08/04 09:54:55;;;;;;;3.15;1.83;;;19.10;99.90;;;;;;5028300;28;20034;-82
2023/08/04 09:57:22;;;;;;;3.67;1.70;;;19.00;99.90;;;;;;5033576;28;20049;-85
2023/08/04 09:59:51;;;;;;;2.03;1.90;;;18.80;99.90;;;;;;5029523;28;20083;-84
2023/08/04 10:02:19;;;;;;;3.72;1.65;;;18.70;99.90;;;;;;5025211;28;20116;-81
2023/08/04 10:04:50;;;;;;;2.17;1.10;;;18.40;99.90;;;;;;5058726;28;20032;-84
2023/08/04 10:07:19;;;;;;;1.95;1.30;;;18.10;99.90;;;;;;5062428;28;20492;-87
2023/08/04 10:09:47;;;;;;;1.65;1.08;;;17.80;99.90;;;;;;5015383;28;20057;-83
2023/08/04 10:12:14;;;;;;;2.70;1.20;;;17.50;99.90;;;;;;5053765;28;20128;-85
2023/08/04 10:14:40;;;;;;;1.95;1.20;;;17.30;99.90;;;;;;5054755;28;20090;-86
2023/08/04 10:17:06;;;;;;;3.20;1.30;;;17.30;99.90;;;;;;5043884;28;20041;-84
2023/08/04 10:19:33;;;;;;;2.42;1.20;;;17.40;99.90;;;;;;5058579;28;20421;-86
2023/08/04 10:22:05;;;;;;;2.70;1.40;;;17.60;99.90;;;;;;5037004;28;20037;-87
2023/08/04 10:24:34;;;;;;;4.38;1.60;;;17.90;99.90;;;;;;5048775;28;20068;-86
2023/08/04 10:27:04;;;;;;;3.80;2.00;;;18.10;99.90;;;;;;5035804;28;20029;-86
2023/08/04 10:29:34;;;;;;;5.97;2.05;;;18.40;99.90;;;;;;5036055;28;20045;-87
2023/08/04 10:32:01;;;;;;;4.28;1.83;;;18.60;99.90;;;;;;5052113;28;20037;-85
2023/08/04 10:34:35;;;;;;;4.47;1.75;;;18.60;99.90;;;;;;5038526;28;20361;-84
2023/08/04 10:37:04;;;;;;;5.47;2.25;;;18.70;99.90;;;;;;5037849;28;20045;-90
2023/08/04 10:39:31;;;;;;;3.22;2.20;;;18.70;99.90;;;;;;5034776;28;20378;-88
2023/08/04 10:41:59;;;;;;;4.65;2.20;;;18.50;99.90;;;;;;5066832;28;20393;-87
2023/08/04 10:44:29;;;;;;;3.08;2.00;;;18.20;99.90;;;;;;5028714;28;20049;-87
2023/08/04 10:47:04;;;;;;;6.30;2.47;;;17.80;99.90;;;;;;5035801;28;20099;-84
2023/08/04 10:49:32;;;;;;;7.03;2.60;;;17.60;99.90;;;;;;5053432;28;20115;-89
2023/08/04 10:51:59;;;;;;;6.57;2.72;;;17.50;99.90;;;;;;5035381;28;20043;-89
2023/08/04 10:54:25;;;;;;;4.88;2.70;;;17.60;99.90;;;;;;5044271;28;20037;-86
2023/08/04 10:56:50;;;;;;;6.47;2.55;;;17.80;99.90;;;;;;5040731;28;20052;-86
2023/08/04 10:59:16;;;;;;;6.90;2.95;;;17.90;99.90;;;;;;5041857;28;20037;-87
2023/08/04 11:01:42;;;;;;;6.35;3.10;;;18.10;99.90;;;;;;5051656;28;20049;-88
2023/08/04 11:04:07;;;;;;;3.50;2.28;;;18.20;99.90;;;;;;5051574;28;20059;-85
2023/08/04 11:06:33;;;;;;;4.10;2.55;;;18.10;99.90;;;;;;5051497;28;20143;-87
2023/08/04 11:08:59;;;;;;;3.70;2.40;;;18.00;99.90;;;;;;5040630;28;20441;-87
2023/08/04 11:11:25;;;;;;;4.20;2.58;;;18.00;99.90;;;;;;5047844;28;20036;-87
2023/08/04 11:13:56;;;;;;;5.43;2.67;;;18.00;99.90;;;;;;5041666;28;20044;-88
2023/08/04 11:16:26;;;;;;;7.90;2.70;;;18.30;99.90;;;;;;5035203;28;20037;-87
2023/08/04 11:18:55;;;;;;;7.88;2.78;;;18.60;99.90;;;;;;5051469;28;20041;-87
2023/08/04 11:21:20;;;;;;;3.58;2.13;;;18.70;99.90;;;;;;5025167;28;20037;-84
2023/08/04 11:23:47;;;;;;;4.57;1.98;;;18.70;99.90;;;;;;5037799;28;20124;-86
2023/08/04 11:26:15;;;;;;;6.72;2.38;;;18.50;99.90;;;;;;5051923;28;20037;-87
2023/08/04 11:28:41;;;;;;;3.72;2.50;;;18.40;99.90;;;;;;5035434;28;20057;-85
2023/08/04 11:31:08;;;;;;;4.70;2.15;;;18.30;99.90;;;;;;5036272;28;20491;-87
2023/08/04 11:33:34;;;;;;;2.80;2.22;;;18.30;99.90;;;;;;5050592;28;20055;-86
2023/08/04 11:36:03;;;;;;;4.05;2.30;;;18.30;99.90;;;;;;5050785;28;20040;-86
2023/08/04 11:38:30;;;;;;;3.67;2.42;;;18.40;99.90;;;;;;5040987;28;20066;-85
2023/08/04 11:41:00;;;;;;;4.07;2.55;;;18.50;99.90;;;;;;5062234;28;20045;-85
2023/08/04 11:43:26;;;;;;;4.28;2.40;;;18.60;99.90;;;;;;5017645;28;20096;-85
2023/08/04 11:45:55;;;;;;;5.78;2.50;;;18.60;99.90;;;;;;5059916;28;20033;-86
2023/08/04 11:48:21;;;;;;;6.05;2.60;;;18.60;99.90;;;;;;5063120;28;20036;-85
2023/08/04 11:50:48;;;;;;;4.75;2.40;;;18.60;99.90;;;;;;5044025;28;20131;-86
2023/08/04 11:53:17;;;;;;;4.10;2.53;;;18.70;99.90;;;;;;5065201;28;20047;-85
2023/08/04 11:55:57;;;;;;;4.60;2.20;;;18.90;99.90;;;;;;5059613;28;20161;-86
2023/08/04 11:58:30;;;;;;;4.63;1.98;;;19.30;99.90;;;;;;5017311;28;20037;-87
2023/08/04 12:00:56;;;;;;;4.30;2.20;;;19.60;99.90;;;;;;5028113;28;20160;-86
2023/08/04 12:03:22;;;;;;;3.83;1.80;;;19.60;99.90;;;;;;5058063;28;20086;-84
2023/08/04 12:05:47;;;;;;;3.58;2.15;;;19.30;99.90;;;;;;5039529;28;20045;-85
2023/08/04 12:08:16;;;;;;;3.47;1.98;;;19.10;99.90;;;;;;5034322;28;20392;-84
2023/08/04 12:10:42;;;;;;;4.32;1.98;;;19.00;99.90;;;;;;5053892;28;20048;-84
2023/08/04 12:13:08;;;;;;;5.55;2.33;;;18.90;99.90;;;;;;5033822;28;20045;-84
2023/08/04 12:15:53;;;;;;;5.28;2.50;;;18.90;99.90;;;;;;5041944;28;20179;-83
2023/08/04 12:18:26;;;;;;;5.90;2.40;;;18.90;99.90;;;;;;5049091;28;20668;-84
2023/08/04 12:20:52;;;;;;;4.32;2.13;;;19.10;99.90;;;;;;5033880;28;20084;-83
2023/08/04 12:23:18;;;;;;;3.22;1.88;;;19.30;99.90;;;;;;5053230;28;20079;-86
2023/08/04 12:25:44;;;;;;;4.68;1.80;;;19.60;99.90;;;;;;5064619;28;20384;-83
2023/08/04 12:28:11;;;;;;;5.07;2.08;;;19.70;99.90;;;;;;5050230;28;20052;-86
2023/08/04 12:30:37;;;;;;;5.13;2.47;;;19.70;99.90;;;;;;5052042;28;20398;-86
2023/08/04 12:33:03;;;;;;;3.83;2.17;;;19.70;99.90;;;;;;5053557;28;20097;-82
2023/08/04 12:35:29;;;;;;;1.95;1.60;;;19.80;99.90;;;;;;5019642;28;20591;-83
2023/08/04 12:37:55;;;;;;;4.53;2.03;;;19.50;99.90;;;;;;5047986;28;20053;-85
2023/08/04 12:40:20;;;;;;;3.83;2.00;;;19.30;99.90;;;;;;5033235;28;20485;-83
2023/08/04 12:42:46;;;;;;;4.18;1.90;;;19.10;99.90;;;;;;5028322;28;20495;-84
2023/08/04 12:45:12;;;;;;;3.38;1.75;;;19.00;99.90;;;;;;5070446;28;20040;-85